Time;durP1;ratioP1;P1;durP2;ratioP2;P2;SDS_P1;SDS_P2;PMS_P1;PMS_P2;Temp;Humidity;BMP_temperature;BMP_pressure;BME280_temperature;BME280_humidity;BME280_pressure;Samples;Min_cycle;Max_cycle;Signal;HPM_P1;HPM_P2
2022/03/28 00:02:26;;;;;;;36.20;15.27;;;;;;;10.15;62.37;102178.75;5072993;28;20119;-65
2022/03/28 00:04:52;;;;;;;32.20;15.43;;;;;;;10.13;62.23;102185.09;5071040;28;20101;-65
2022/03/28 00:07:20;;;;;;;34.70;15.07;;;;;;;10.16;62.16;102180.41;5073015;28;20047;-65
2022/03/28 00:09:47;;;;;;;32.55;15.35;;;;;;;10.12;61.96;102184.28;5055261;28;20558;-65
2022/03/28 00:12:14;;;;;;;32.30;14.85;;;;;;;10.02;62.22;102180.63;5072696;28;20052;-64
2022/03/28 00:14:40;;;;;;;36.90;15.93;;;;;;;10.02;62.71;102182.44;5071271;28;20040;-64
2022/03/28 00:17:08;;;;;;;38.15;16.17;;;;;;;10.03;62.50;102184.97;5038837;28;20115;-65
2022/03/28 00:19:35;;;;;;;31.27;14.77;;;;;;;10.00;63.69;102179.88;5071349;28;20072;-64
2022/03/28 00:22:02;;;;;;;35.38;15.27;;;;;;;9.99;63.41;102171.09;5077308;28;20040;-65
2022/03/28 00:24:29;;;;;;;39.25;15.85;;;;;;;9.90;63.54;102163.84;5078314;28;20119;-65
2022/03/28 00:26:55;;;;;;;33.65;15.73;;;;;;;9.89;63.52;102163.94;5062472;28;20055;-65
2022/03/28 00:29:22;;;;;;;33.58;15.23;;;;;;;9.85;63.56;102162.50;5061974;28;20048;-64
2022/03/28 00:31:50;;;;;;;37.83;16.20;;;;;;;9.87;63.69;102155.28;5079113;28;20105;-65
2022/03/28 00:34:21;;;;;;;37.90;15.57;;;;;;;9.87;63.66;102152.63;5060332;28;20055;-64
2022/03/28 00:36:50;;;;;;;34.65;15.00;;;;;;;9.83;63.08;102148.50;5096894;28;20120;-66
2022/03/28 00:39:20;;;;;;;36.88;15.57;;;;;;;9.87;65.02;102145.50;5096630;28;20040;-65
2022/03/28 00:41:48;;;;;;;35.33;15.60;;;;;;;9.90;64.93;102150.59;5062562;28;20048;-65
2022/03/28 00:44:15;;;;;;;39.10;15.23;;;;;;;9.89;64.98;102143.56;5096206;28;20097;-65
2022/03/28 00:46:42;;;;;;;39.47;15.65;;;;;;;9.96;64.31;102138.66;5061565;28;20048;-65
2022/03/28 00:49:09;;;;;;;31.20;14.85;;;;;;;10.02;64.39;102138.19;5061871;28;20048;-64
2022/03/28 00:51:37;;;;;;;36.30;15.80;;;;;;;10.06;64.17;102136.16;5078694;28;20112;-65
2022/03/28 00:54:05;;;;;;;32.33;14.45;;;;;;;10.07;64.50;102135.22;5096298;28;20094;-64
2022/03/28 00:56:33;;;;;;;35.10;15.38;;;;;;;10.14;63.40;102131.97;5096247;28;20500;-64
2022/03/28 00:58:59;;;;;;;36.08;14.93;;;;;;;10.21;63.38;102134.16;5078051;28;20052;-65
2022/03/28 01:01:26;;;;;;;36.55;16.02;;;;;;;10.19;63.15;102132.47;5096001;28;20040;-64
2022/03/28 01:03:53;;;;;;;36.30;15.50;;;;;;;10.24;63.01;102131.25;5076236;28;20044;-65
2022/03/28 01:06:20;;;;;;;33.58;14.88;;;;;;;10.18;63.14;102128.09;5078010;28;20044;-65
2022/03/28 01:08:48;;;;;;;32.47;15.38;;;;;;;10.10;62.75;102125.22;5078179;28;20043;-64
2022/03/28 01:11:17;;;;;;;38.45;15.43;;;;;;;10.14;62.40;102124.00;5095857;28;20044;-64
2022/03/28 01:13:45;;;;;;;34.83;14.88;;;;;;;10.17;62.37;102117.66;5096048;28;20064;-64
2022/03/28 01:16:12;;;;;;;30.38;14.63;;;;;;;10.24;62.62;102118.00;5095864;28;20122;-64
2022/03/28 01:18:47;;;;;;;33.17;14.93;;;;;;;10.23;63.14;102117.16;5061580;28;20063;-64
2022/03/28 01:21:15;;;;;;;36.05;15.40;;;;;;;10.23;63.13;102113.66;5096104;28;20044;-65
2022/03/28 01:23:42;;;;;;;29.75;13.80;;;;;;;10.26;63.56;102105.47;5077681;28;20040;-64
2022/03/28 01:26:09;;;;;;;29.63;14.20;;;;;;;10.23;63.67;102108.38;5095686;28;20043;-64
2022/03/28 01:28:37;;;;;;;33.70;15.15;;;;;;;10.16;63.92;102110.63;5065753;28;20122;-64
2022/03/28 01:31:03;;;;;;;33.85;15.50;;;;;;;10.14;64.10;102108.09;5077246;28;20123;-65
2022/03/28 01:33:31;;;;;;;35.95;15.85;;;;;;;10.03;63.97;102101.94;5075356;28;20067;-64
2022/03/28 01:35:58;;;;;;;34.13;15.55;;;;;;;9.84;64.83;102092.75;5077459;28;20135;-64
2022/03/28 01:38:25;;;;;;;35.55;15.60;;;;;;;9.62;65.32;102093.50;5077705;28;20442;-64
2022/03/28 01:40:52;;;;;;;45.50;15.70;;;;;;;9.63;65.15;102089.91;5077576;28;20036;-64
2022/03/28 01:43:20;;;;;;;34.15;15.25;;;;;;;9.59;65.60;102086.63;5077700;28;20040;-65
2022/03/28 01:45:47;;;;;;;35.22;15.40;;;;;;;9.54;65.26;102080.00;5077046;28;20070;-65
2022/03/28 01:48:14;;;;;;;33.42;14.52;;;;;;;9.46;65.51;102085.88;5060258;28;20145;-64
2022/03/28 01:50:41;;;;;;;39.55;15.73;;;;;;;9.47;66.61;102084.06;5095326;28;20518;-65
2022/03/28 01:53:08;;;;;;;34.20;15.80;;;;;;;9.60;66.15;102079.50;5067644;28;20110;-64
2022/03/28 01:55:35;;;;;;;33.05;15.60;;;;;;;9.67;66.41;102082.56;5077215;28;20094;-65
2022/03/28 01:58:01;;;;;;;33.25;14.70;;;;;;;9.64;66.44;102080.13;5095097;28;20040;-65
2022/03/28 02:00:31;;;;;;;37.22;15.23;;;;;;;9.66;66.39;102084.38;5094931;28;20052;-65
2022/03/28 02:02:58;;;;;;;34.95;15.55;;;;;;;9.55;66.19;102077.22;5095078;28;20055;-65
2022/03/28 02:05:25;;;;;;;36.88;15.18;;;;;;;9.52;66.75;102071.31;5060370;28;20059;-64
2022/03/28 02:07:52;;;;;;;31.90;14.35;;;;;;;9.47;66.78;102076.09;5092973;28;20480;-64
2022/03/28 02:10:22;;;;;;;36.60;15.40;;;;;;;9.42;66.49;102071.13;5078388;28;20149;-65
2022/03/28 02:12:49;;;;;;;30.15;14.40;;;;;;;9.16;67.64;102070.41;5082130;28;20117;-64
2022/03/28 02:15:16;;;;;;;36.17;15.13;;;;;;;9.01;67.92;102067.94;5080603;28;20040;-64
2022/03/28 02:17:43;;;;;;;38.53;15.88;;;;;;;8.96;68.60;102063.94;5094965;28;20534;-64
2022/03/28 02:20:12;;;;;;;33.67;15.48;;;;;;;8.97;68.67;102066.47;5076887;28;20050;-64
2022/03/28 02:22:40;;;;;;;35.42;15.25;;;;;;;8.95;68.39;102064.88;5094575;28;20105;-64
2022/03/28 02:25:09;;;;;;;32.95;15.82;;;;;;;8.99;68.32;102064.56;5059889;28;20048;-64
2022/03/28 02:27:36;;;;;;;39.05;15.90;;;;;;;8.97;68.41;102071.75;5059882;28;20040;-65
2022/03/28 02:30:05;;;;;;;35.03;15.85;;;;;;;8.94;68.12;102060.56;5059961;28;20496;-63
2022/03/28 02:32:32;;;;;;;34.88;15.38;;;;;;;8.98;68.13;102064.66;5094286;28;20068;-65
2022/03/28 02:35:00;;;;;;;34.17;14.82;;;;;;;8.92;68.14;102062.47;5058020;28;20047;-62
2022/03/28 02:37:28;;;;;;;31.75;14.43;;;;;;;8.89;67.57;102062.69;5094378;28;20047;-62
2022/03/28 02:39:56;;;;;;;31.10;14.25;;;;;;;8.86;69.10;102058.47;5094509;28;20054;-65
2022/03/28 02:42:22;;;;;;;33.45;14.90;;;;;;;8.92;68.61;102054.53;5059587;28;20036;-65
2022/03/28 02:44:51;;;;;;;34.05;15.18;;;;;;;8.92;69.09;102047.44;5075572;28;20032;-65
2022/03/28 02:47:19;;;;;;;33.85;15.63;;;;;;;8.96;69.18;102050.69;5093665;28;20446;-65
2022/03/28 02:49:47;;;;;;;35.28;14.20;;;;;;;8.76;68.75;102046.84;5059813;28;20094;-65
2022/03/28 02:52:13;;;;;;;32.75;15.85;;;;;;;8.76;69.06;102039.75;5059559;28;20051;-65
2022/03/28 02:54:40;;;;;;;32.92;15.05;;;;;;;8.71;69.26;102038.38;5075922;28;20040;-65
2022/03/28 02:57:07;;;;;;;33.42;14.68;;;;;;;8.80;70.14;102029.78;5076095;28;20066;-64
2022/03/28 02:59:34;;;;;;;33.28;14.80;;;;;;;8.77;69.65;102028.22;5093806;28;20055;-64
2022/03/28 03:02:02;;;;;;;34.60;14.70;;;;;;;8.70;69.81;102020.84;5093922;28;20077;-64
2022/03/28 03:04:31;;;;;;;32.95;14.90;;;;;;;8.68;70.42;102020.94;5093842;28;20036;-64
2022/03/28 03:06:58;;;;;;;33.55;15.57;;;;;;;8.72;70.56;102018.94;5074190;28;20043;-62
2022/03/28 03:09:25;;;;;;;41.17;15.57;;;;;;;8.67;71.51;102021.88;5059526;28;20040;-64
2022/03/28 03:11:52;;;;;;;34.50;14.38;;;;;;;8.65;72.41;102014.06;5075614;28;20064;-64
2022/03/28 03:14:19;;;;;;;32.15;15.15;;;;;;;8.73;72.96;102013.53;5075625;28;20048;-65
2022/03/28 03:16:46;;;;;;;33.95;14.90;;;;;;;8.72;73.21;102014.47;5093368;28;20552;-65
2022/03/28 03:19:13;;;;;;;34.70;15.05;;;;;;;8.73;73.31;102002.09;5093682;28;20044;-64
2022/03/28 03:21:40;;;;;;;40.30;15.50;;;;;;;8.64;74.48;101993.88;5093645;28;20113;-65
2022/03/28 03:24:06;;;;;;;36.13;15.40;;;;;;;8.72;75.23;102001.25;5083813;28;20106;-65
2022/03/28 03:26:33;;;;;;;39.42;16.75;;;;;;;8.83;75.82;101993.38;5075580;28;20153;-65
2022/03/28 03:29:00;;;;;;;36.75;16.67;;;;;;;8.88;75.66;102002.75;5059238;28;20083;-64
2022/03/28 03:31:27;;;;;;;40.45;17.17;;;;;;;8.86;75.74;102000.25;5075257;28;20048;-64
2022/03/28 03:33:54;;;;;;;36.53;15.98;;;;;;;8.95;75.81;101998.72;5040519;28;20067;-64
2022/03/28 03:36:21;;;;;;;39.65;16.27;;;;;;;9.02;76.00;101995.53;5092545;28;20389;-64
2022/03/28 03:38:49;;;;;;;36.85;17.27;;;;;;;9.02;76.13;101992.88;5059287;28;20119;-64
2022/03/28 03:41:16;;;;;;;42.88;17.33;;;;;;;9.10;76.10;101996.75;5093354;28;20385;-64
2022/03/28 03:43:44;;;;;;;37.65;16.45;;;;;;;9.12;76.50;101998.31;5093345;28;20074;-64
2022/03/28 03:46:11;;;;;;;39.55;18.35;;;;;;;9.05;76.79;102001.53;5092854;28;20044;-64
2022/03/28 03:48:38;;;;;;;35.60;17.05;;;;;;;8.96;77.08;101993.31;5075171;28;20039;-64
2022/03/28 03:51:05;;;;;;;37.47;17.27;;;;;;;8.99;77.21;102001.03;5058960;28;20097;-64
2022/03/28 03:53:31;;;;;;;42.35;17.85;;;;;;;9.09;76.83;101995.06;5058280;28;20399;-64
2022/03/28 03:55:59;;;;;;;41.55;18.00;;;;;;;9.13;77.22;101985.91;5058736;28;20516;-64
2022/03/28 03:58:27;;;;;;;43.60;16.35;;;;;;;9.04;77.33;101979.53;5058109;28;20035;-64
2022/03/28 04:00:54;;;;;;;38.67;17.58;;;;;;;9.00;77.38;101981.56;5058626;28;20500;-64
2022/03/28 04:03:21;;;;;;;37.20;16.95;;;;;;;8.96;77.13;101979.25;5058646;28;20040;-64
2022/03/28 04:05:48;;;;;;;39.53;16.85;;;;;;;8.95;77.78;101982.84;5058486;28;20044;-64
2022/03/28 04:08:14;;;;;;;44.03;18.25;;;;;;;8.91;77.90;101981.38;5090980;28;20044;-64
2022/03/28 04:10:42;;;;;;;41.70;18.13;;;;;;;8.93;77.80;101979.47;5075438;28;20077;-64
2022/03/28 04:13:12;;;;;;;37.90;16.55;;;;;;;8.89;78.08;101970.91;5092832;28;20047;-64
2022/03/28 04:15:38;;;;;;;39.55;17.27;;;;;;;8.88;78.00;101973.66;5092608;28;20040;-65
2022/03/28 04:18:05;;;;;;;42.63;17.55;;;;;;;8.80;78.74;101974.22;5075001;28;20043;-64
2022/03/28 04:20:32;;;;;;;39.30;17.17;;;;;;;8.75;78.59;101973.72;5093209;28;20158;-64
2022/03/28 04:22:59;;;;;;;38.70;16.65;;;;;;;8.65;78.87;101963.78;5094569;28;20492;-64
2022/03/28 04:25:26;;;;;;;44.03;17.33;;;;;;;8.58;78.47;101961.72;5046193;28;20400;-64
2022/03/28 04:27:53;;;;;;;40.58;17.35;;;;;;;8.53;78.92;101955.91;5076822;28;20504;-64
2022/03/28 04:30:20;;;;;;;38.58;16.88;;;;;;;8.47;78.16;101959.84;5074906;28;20044;-64
2022/03/28 04:32:47;;;;;;;36.72;16.85;;;;;;;8.43;78.74;101963.66;5074736;28;20481;-64
2022/03/28 04:35:14;;;;;;;43.55;17.30;;;;;;;8.38;79.43;101958.66;5058019;28;20040;-64
2022/03/28 04:37:42;;;;;;;47.40;17.45;;;;;;;8.34;79.35;101953.72;5073101;28;20052;-64
2022/03/28 04:40:13;;;;;;;46.00;17.23;;;;;;;8.25;79.74;101950.78;5075243;28;20048;-64
2022/03/28 04:42:40;;;;;;;44.92;17.35;;;;;;;8.22;79.79;101947.50;5074904;28;20143;-64
2022/03/28 04:45:08;;;;;;;44.65;17.45;;;;;;;8.16;80.56;101940.00;5074370;28;20135;-64
2022/03/28 04:47:35;;;;;;;43.97;18.23;;;;;;;8.16;80.50;101950.59;5074895;28;20044;-63
2022/03/28 04:50:03;;;;;;;37.88;16.73;;;;;;;8.27;80.25;101954.16;5074425;28;20040;-64
2022/03/28 04:52:30;;;;;;;41.65;17.55;;;;;;;8.22;79.83;101953.66;5092273;28;20040;-64
2022/03/28 04:54:57;;;;;;;40.40;16.85;;;;;;;8.13;79.58;101962.25;5074612;28;20036;-64
2022/03/28 04:57:24;;;;;;;40.95;17.58;;;;;;;8.02;80.59;101970.91;5065459;28;20087;-64
2022/03/28 04:59:51;;;;;;;59.00;18.55;;;;;;;8.09;80.56;101968.66;5070672;28;20440;-65
2022/03/28 05:02:18;;;;;;;40.75;18.00;;;;;;;7.99;80.50;101965.00;5038030;28;20036;-64
2022/03/28 05:04:44;;;;;;;43.72;17.45;;;;;;;8.00;80.57;101971.97;5054316;28;20044;-64
2022/03/28 05:07:11;;;;;;;39.22;17.50;;;;;;;7.98;80.32;101979.16;5036393;28;20385;-64
2022/03/28 05:09:38;;;;;;;37.03;17.02;;;;;;;7.88;80.97;101974.50;5073012;28;20094;-64
2022/03/28 05:12:06;;;;;;;38.60;16.67;;;;;;;7.79;81.09;101967.22;5074643;28;20071;-64
2022/03/28 05:14:33;;;;;;;39.97;17.52;;;;;;;7.72;82.09;101965.94;5075564;28;20048;-64
2022/03/28 05:16:59;;;;;;;46.33;20.65;;;;;;;7.76;81.07;101971.88;5075520;28;20044;-64
2022/03/28 05:19:26;;;;;;;48.17;19.95;;;;;;;7.73;80.54;101961.50;5074078;28;20041;-63
2022/03/28 05:21:53;;;;;;;62.40;19.65;;;;;;;7.78;80.66;101954.94;5057767;28;20040;-63
2022/03/28 05:24:21;;;;;;;47.22;18.10;;;;;;;7.87;81.19;101958.75;5074252;28;20029;-64
2022/03/28 05:26:48;;;;;;;41.63;17.73;;;;;;;7.80;81.00;101963.63;5073853;28;20132;-64
2022/03/28 05:29:15;;;;;;;42.85;17.60;;;;;;;7.73;82.11;101961.50;5057548;28;20072;-63
2022/03/28 05:31:42;;;;;;;41.00;17.10;;;;;;;7.72;81.49;101965.13;5074132;28;20048;-63
2022/03/28 05:34:10;;;;;;;40.63;17.60;;;;;;;7.86;81.28;101954.44;5072033;28;20049;-63
2022/03/28 05:36:38;;;;;;;42.53;18.05;;;;;;;7.83;81.76;101960.75;5041336;28;20045;-64
2022/03/28 05:39:05;;;;;;;52.80;18.58;;;;;;;7.82;81.93;101960.88;5073929;28;20044;-64
2022/03/28 05:41:34;;;;;;;50.50;19.13;;;;;;;7.79;81.54;101964.59;5057682;28;20095;-63
2022/03/28 05:44:01;;;;;;;50.53;18.33;;;;;;;7.77;81.78;101955.09;5057569;28;20051;-63
2022/03/28 05:46:28;;;;;;;43.35;19.45;;;;;;;7.82;81.87;101956.44;5073260;28;20079;-64
2022/03/28 05:48:56;;;;;;;43.28;18.13;;;;;;;7.88;81.51;101960.47;5040114;28;20044;-63
2022/03/28 05:51:23;;;;;;;48.85;19.20;;;;;;;7.80;81.79;101962.78;5057033;28;20041;-64
2022/03/28 05:53:51;;;;;;;49.65;19.38;;;;;;;7.90;81.38;101961.19;5056606;28;20045;-63
2022/03/28 05:56:18;;;;;;;45.00;18.63;;;;;;;7.82;82.00;101956.44;5040579;28;20386;-64
2022/03/28 05:58:45;;;;;;;42.90;19.00;;;;;;;7.82;81.82;101961.75;5079603;28;20048;-64
2022/03/28 06:01:11;;;;;;;48.50;18.27;;;;;;;7.80;82.03;101960.13;5076774;28;20050;-64
2022/03/28 06:03:38;;;;;;;47.63;19.10;;;;;;;7.80;83.28;101960.13;5058129;28;20042;-64
2022/03/28 06:06:08;;;;;;;49.80;19.65;;;;;;;7.87;82.84;101956.13;5071767;28;20048;-63
2022/03/28 06:08:35;;;;;;;50.15;19.23;;;;;;;7.91;82.54;101962.88;5092801;28;20070;-63
2022/03/28 06:11:03;;;;;;;50.53;20.02;;;;;;;8.12;82.16;101962.34;5076495;28;20091;-64
2022/03/28 06:13:30;;;;;;;47.03;20.15;;;;;;;8.17;81.98;101947.84;5095025;28;20105;-63
2022/03/28 06:15:58;;;;;;;47.25;20.15;;;;;;;8.16;81.96;101950.59;5059716;28;20044;-64
2022/03/28 06:18:26;;;;;;;46.47;21.10;;;;;;;8.17;81.60;101947.84;5031395;28;20066;-64
2022/03/28 06:20:52;;;;;;;57.83;20.90;;;;;;;8.21;81.09;101948.47;5060182;28;20086;-64
2022/03/28 06:23:19;;;;;;;46.65;20.48;;;;;;;8.32;81.48;101953.00;5076459;28;20130;-64
2022/03/28 06:25:46;;;;;;;52.20;21.63;;;;;;;8.43;80.43;101953.94;5076047;28;20036;-64
2022/03/28 06:28:15;;;;;;;56.30;21.00;;;;;;;8.57;80.27;101949.47;5076832;28;20040;-64
2022/03/28 06:30:42;;;;;;;48.65;20.25;;;;;;;8.59;80.21;101945.75;5076507;28;20044;-63
2022/03/28 06:33:10;;;;;;;52.03;19.55;;;;;;;8.70;79.91;101946.78;5074836;28;20094;-64
2022/03/28 06:35:39;;;;;;;54.30;20.33;;;;;;;8.85;79.95;101948.28;5076327;28;20040;-64
2022/03/28 06:38:06;;;;;;;49.00;22.08;;;;;;;8.99;79.45;101945.44;5094230;28;20040;-64
2022/03/28 06:40:34;;;;;;;46.67;20.52;;;;;;;8.96;79.51;101943.03;5096598;28;20040;-63
2022/03/28 06:43:04;;;;;;;53.08;19.70;;;;;;;9.16;79.00;101940.69;5079648;28;20127;-63
2022/03/28 06:45:31;;;;;;;59.28;21.58;;;;;;;9.16;78.98;101943.34;5094213;28;20127;-63
2022/03/28 06:47:58;;;;;;;42.63;21.23;;;;;;;9.19;78.98;101945.78;5075925;28;20048;-63
2022/03/28 06:50:34;;;;;;;50.03;20.33;;;;;;;9.18;78.86;101944.06;5060829;28;20052;-63
2022/03/28 06:53:01;;;;;;;46.85;20.17;;;;;;;9.19;78.69;101945.78;5075870;28;20048;-63
2022/03/28 06:55:28;;;;;;;47.47;21.70;;;;;;;9.22;78.98;101940.22;5094072;28;20044;-63
2022/03/28 06:57:55;;;;;;;48.13;20.73;;;;;;;9.37;78.76;101935.59;5075964;28;20040;-63
2022/03/28 07:00:21;;;;;;;48.00;21.45;;;;;;;9.35;78.52;101935.69;5054074;28;20084;-63
2022/03/28 07:02:49;;;;;;;55.80;22.60;;;;;;;9.40;78.43;101930.03;5052419;28;20119;-63
2022/03/28 07:05:16;;;;;;;50.55;22.88;;;;;;;9.49;78.14;101931.16;5052187;28;20162;-63
2022/03/28 07:07:46;;;;;;;54.63;23.45;;;;;;;9.58;77.77;101930.44;5034237;28;20397;-64
2022/03/28 07:10:16;;;;;;;52.03;23.48;;;;;;;9.55;77.95;101926.22;5053608;28;20453;-64
2022/03/28 07:12:42;;;;;;;54.88;23.50;;;;;;;9.60;77.61;101929.38;5053684;28;20448;-63
2022/03/28 07:15:11;;;;;;;57.25;22.05;;;;;;;9.66;77.53;101929.84;5052561;28;20041;-63
2022/03/28 07:18:02;;;;;;;51.88;24.20;;;;;;;9.88;76.59;101934.31;5053331;28;20065;-63
2022/03/28 07:20:31;;;;;;;47.70;23.20;;;;;;;9.91;76.40;101929.59;5053208;28;20052;-63
2022/03/28 07:22:59;;;;;;;47.38;23.63;;;;;;;9.99;75.92;101927.19;5052151;28;20071;-64
2022/03/28 07:25:26;;;;;;;53.03;24.25;;;;;;;10.01;75.93;101919.13;5051811;28;20425;-63
2022/03/28 07:27:53;;;;;;;59.65;24.55;;;;;;;9.92;75.91;101922.50;5052374;28;20049;-64
2022/03/28 07:30:21;;;;;;;53.10;25.00;;;;;;;9.89;76.77;101920.94;5051747;28;20488;-64
2022/03/28 07:32:48;;;;;;;60.67;25.85;;;;;;;9.99;76.60;101916.59;5051352;28;20451;-62
2022/03/28 07:35:15;;;;;;;63.60;26.73;;;;;;;9.98;76.42;101922.00;5052861;28;20037;-62
2022/03/28 07:37:43;;;;;;;63.08;24.98;;;;;;;10.11;76.33;101921.88;5049573;28;20098;-62
2022/03/28 07:40:11;;;;;;;52.63;25.70;;;;;;;10.31;75.06;101922.97;5052542;28;20045;-62
2022/03/28 07:42:40;;;;;;;69.05;29.92;;;;;;;10.32;75.46;101914.91;5052002;28;20052;-62
2022/03/28 07:45:09;;;;;;;65.90;28.55;;;;;;;10.45;74.41;101906.78;5052794;28;20119;-62
2022/03/28 07:47:38;;;;;;;63.67;27.50;;;;;;;10.48;74.66;101903.06;5052679;28;20447;-62
2022/03/28 07:50:05;;;;;;;59.30;27.23;;;;;;;10.59;74.26;101904.81;5052775;28;20095;-62
2022/03/28 07:52:32;;;;;;;51.83;25.30;;;;;;;10.75;73.23;101898.13;5053059;28;20049;-62
2022/03/28 07:55:00;;;;;;;57.97;26.30;;;;;;;10.79;73.09;101896.06;5045529;28;20065;-63
2022/03/28 07:57:28;;;;;;;56.97;27.02;;;;;;;10.74;73.22;101900.91;5051907;28;20053;-61
2022/03/28 07:59:55;;;;;;;59.65;28.83;;;;;;;10.85;73.14;101895.53;5082342;28;20051;-62
2022/03/28 08:02:45;;;;;;;66.78;27.63;;;;;;;11.07;72.39;101894.59;5077973;28;20032;-62
2022/03/28 08:05:12;;;;;;;63.60;27.95;;;;;;;11.05;72.21;101885.91;5093271;28;20055;-62
2022/03/28 08:07:39;;;;;;;56.35;26.08;;;;;;;11.19;72.91;101895.38;5073298;28;20050;-61
2022/03/28 08:10:06;;;;;;;60.65;26.90;;;;;;;11.36;72.68;101893.09;5058629;28;20518;-62
2022/03/28 08:12:36;;;;;;;64.15;27.80;;;;;;;11.42;72.30;101892.56;5092842;28;20044;-62
2022/03/28 08:15:06;;;;;;;68.10;28.60;;;;;;;11.63;72.00;101893.38;5093265;28;20052;-61
2022/03/28 08:17:35;;;;;;;74.80;30.10;;;;;;;11.73;70.94;101880.13;5092707;28;20048;-62
2022/03/28 08:20:06;;;;;;;65.47;30.25;;;;;;;11.75;70.63;101882.66;5075320;28;20496;-62
2022/03/28 08:22:38;;;;;;;69.63;31.35;;;;;;;11.87;70.22;101876.25;5092626;28;20637;-62
2022/03/28 08:25:07;;;;;;;65.68;30.58;;;;;;;11.87;70.26;101879.75;5084170;28;20085;-62
2022/03/28 08:27:34;;;;;;;59.03;29.10;;;;;;;12.09;70.24;101878.72;5077631;28;20048;-62
2022/03/28 08:30:02;;;;;;;60.75;28.02;;;;;;;12.22;70.73;101867.84;5096574;28;20550;-62
2022/03/28 08:32:29;;;;;;;51.67;26.38;;;;;;;12.38;69.83;101871.78;5073023;28;20044;-62
2022/03/28 08:34:55;;;;;;;58.45;27.23;;;;;;;12.36;69.54;101871.94;5069100;28;20519;-62
2022/03/28 08:37:24;;;;;;;54.95;27.58;;;;;;;12.38;69.06;101864.66;5092774;28;20044;-61
2022/03/28 08:39:54;;;;;;;56.22;27.90;;;;;;;12.62;68.14;101863.41;5091420;28;20048;-62
2022/03/28 08:42:22;;;;;;;58.55;27.35;;;;;;;12.29;69.87;101855.66;5092440;28;20113;-62
2022/03/28 08:44:49;;;;;;;65.10;26.90;;;;;;;12.40;69.79;101854.69;5113594;28;20044;-63
2022/03/28 08:47:19;;;;;;;56.10;27.98;;;;;;;12.70;67.58;101858.22;5078251;28;20145;-63
2022/03/28 08:49:49;;;;;;;63.28;28.35;;;;;;;12.76;68.06;101864.81;5101486;28;20130;-63
2022/03/28 08:52:16;;;;;;;57.50;28.05;;;;;;;12.83;67.71;101858.78;5103309;28;20109;-63
2022/03/28 08:54:44;;;;;;;54.65;28.88;;;;;;;12.78;67.39;101858.34;5094428;28;20036;-62
2022/03/28 08:57:13;;;;;;;56.75;29.73;;;;;;;12.97;66.96;101864.63;5077789;28;20048;-62
2022/03/28 08:59:39;;;;;;;60.78;30.63;;;;;;;13.12;66.62;101851.72;5092096;28;20059;-63
2022/03/28 09:02:43;;;;;;;58.75;29.17;;;;;;;13.39;66.08;101854.47;5060184;28;20078;-62
2022/03/28 09:05:10;;;;;;;68.78;30.42;;;;;;;13.51;64.64;101855.13;5072588;28;20050;-62
2022/03/28 09:07:38;;;;;;;64.10;28.35;;;;;;;13.73;64.15;101840.56;5068955;28;20075;-62
2022/03/28 09:10:11;;;;;;;58.90;29.10;;;;;;;13.74;64.45;101844.09;5074289;28;20055;-63
2022/03/28 09:13:06;;;;;;;55.75;28.98;;;;;;;13.91;63.78;101845.13;5073060;28;20040;-63
2022/03/28 09:15:43;;;;;;;62.78;30.02;;;;;;;14.24;62.13;101837.47;5092155;28;20414;-63
2022/03/28 09:18:31;;;;;;;60.13;28.58;;;;;;;14.49;62.17;101838.56;5074229;28;20136;-63
2022/03/28 09:23:44;;;;;;;65.00;29.92;;;;;;;16.21;56.46;101828.84;5089155;27;20405;-62
2022/03/28 09:26:16;;;;;;;66.35;30.77;;;;;;;17.34;53.78;101822.78;5079021;28;20068;-62
2022/03/28 09:31:35;;;;;;;53.20;28.80;;;;;;;19.55;47.03;101824.81;5130712;27;20913;-62
2022/03/28 09:34:13;;;;;;;57.58;29.55;;;;;;;20.30;44.50;101818.28;5121485;28;20054;-62
2022/03/28 09:36:51;;;;;;;62.97;29.25;;;;;;;21.28;42.07;101814.88;5115254;28;20071;-62
2022/03/28 09:39:22;;;;;;;55.25;28.73;;;;;;;22.04;39.80;101817.50;5114768;28;20055;-61
2022/03/28 09:42:10;;;;;;;67.47;30.55;;;;;;;22.95;38.12;101818.00;5127992;27;20437;-62
2022/03/28 09:44:42;;;;;;;54.08;28.40;;;;;;;23.45;36.38;101818.31;5125910;27;20050;-62
2022/03/28 09:47:14;;;;;;;53.70;29.55;;;;;;;23.37;35.63;101813.13;5112292;28;20056;-62
2022/03/28 09:49:44;;;;;;;78.97;41.75;;;;;;;23.86;35.07;101808.97;5119422;28;20568;-62
2022/03/28 09:52:15;;;;;;;57.00;30.13;;;;;;;24.00;33.57;101809.75;5121688;27;20044;-62
2022/03/28 09:55:00;;;;;;;59.70;31.25;;;;;;;24.58;33.47;101806.03;5122196;28;20047;-63
2022/03/28 09:57:31;;;;;;;58.70;30.63;;;;;;;24.76;33.09;101804.38;5119823;27;20051;-63
2022/03/28 10:00:09;;;;;;;57.67;30.88;;;;;;;24.97;32.41;101814.00;5113408;28;20043;-61
2022/03/28 10:02:36;;;;;;;57.88;30.33;;;;;;;24.95;32.96;101803.38;5109938;28;20122;-61
2022/03/28 10:05:12;;;;;;;70.85;37.72;;;;;;;25.48;32.22;101791.09;5112086;28;20403;-60
2022/03/28 10:07:39;;;;;;;59.42;30.60;;;;;;;25.96;31.20;101794.88;5087948;28;20045;-61
2022/03/28 10:10:06;;;;;;;55.10;31.48;;;;;;;26.04;30.84;101789.13;5089620;28;20093;-60
2022/03/28 10:12:34;;;;;;;55.22;31.02;;;;;;;25.82;31.48;101795.03;5099940;28;20032;-61
2022/03/28 10:15:01;;;;;;;61.08;31.05;;;;;;;26.16;30.35;101791.84;5109641;28;20385;-61
2022/03/28 10:17:31;;;;;;;58.08;31.13;;;;;;;25.98;31.04;101792.78;5109382;28;20036;-61
2022/03/28 10:19:58;;;;;;;53.63;31.10;;;;;;;26.16;30.95;101786.41;5091744;28;20097;-61
2022/03/28 10:22:33;;;;;;;65.50;31.40;;;;;;;25.62;30.87;101787.16;5109540;28;20035;-61
2022/03/28 10:25:06;;;;;;;50.85;30.27;;;;;;;25.99;30.49;101784.38;5114897;28;20543;-61
2022/03/28 10:27:33;;;;;;;54.13;31.30;;;;;;;26.38;29.82;101775.84;5130501;27;20035;-61
2022/03/28 10:30:22;;;;;;;56.42;31.30;;;;;;;26.33;30.29;101781.97;5107805;27;20044;-61
2022/03/28 10:33:10;;;;;;;55.55;32.10;;;;;;;25.73;31.36;101771.97;5109119;28;20048;-61
2022/03/28 10:35:38;;;;;;;61.28;32.10;;;;;;;24.83;32.82;101765.31;5108974;28;20127;-62
2022/03/28 10:38:21;;;;;;;59.70;32.22;;;;;;;24.52;32.88;101752.63;5107283;28;20043;-62
2022/03/28 10:40:58;;;;;;;62.47;31.13;;;;;;;23.63;34.28;101751.78;5121561;28;20148;-61
2022/03/28 10:43:30;;;;;;;63.47;32.90;;;;;;;23.20;34.66;101747.81;5126118;27;20074;-61
2022/03/28 10:46:01;;;;;;;;;;;;;;;22.74;35.98;101752.28;5096389;28;20052;-61
2022/03/28 10:48:53;;;;;;;63.63;32.20;;;;;;;22.70;36.53;101742.06;5110282;28;19946;-61
2022/03/28 10:51:30;;;;;;;75.97;37.25;;;;;;;22.75;36.03;101735.00;5095121;28;20036;-63
2022/03/28 10:53:59;;;;;;;73.97;40.90;;;;;;;22.48;37.42;101733.38;5086799;28;20074;-62
2022/03/28 10:56:31;;;;;;;68.07;34.03;;;;;;;22.35;37.83;101726.09;5097229;28;20051;-63
2022/03/28 10:59:05;;;;;;;66.22;35.10;;;;;;;21.47;38.89;101730.50;5101121;28;20044;-62
2022/03/28 11:01:34;;;;;;;66.93;35.72;;;;;;;21.61;39.08;101719.75;5085485;28;20393;-62
2022/03/28 11:04:05;;;;;;;69.72;36.72;;;;;;;21.31;39.91;101719.22;5090881;28;20048;-62
2022/03/28 11:09:45;;;;;;;72.22;35.15;;;;;;;22.00;38.04;101708.19;5121571;27;20330;-63
2022/03/28 11:12:17;;;;;;;71.43;36.17;;;;;;;22.05;38.48;101699.47;5103959;28;20055;-63
2022/03/28 11:17:34;;;;;;;65.75;35.33;;;;;;;22.16;38.04;101700.72;5119491;27;20871;-63
2022/03/28 11:20:20;;;;;;;66.57;35.97;;;;;;;21.98;38.14;101693.22;5115140;28;20048;-63
2022/03/28 11:25:31;;;;;;;69.90;40.75;;;;;;;22.82;37.35;101694.41;5117422;27;20411;-63
2022/03/28 11:28:09;;;;;;;70.38;35.55;;;;;;;22.98;36.11;101685.81;5114716;28;20058;-63
2022/03/28 11:30:39;;;;;;;73.57;35.97;;;;;;;23.27;35.68;101682.84;5111592;28;20043;-64
2022/03/28 11:33:11;;;;;;;61.20;34.35;;;;;;;23.53;35.39;101682.66;5119311;28;20105;-65
2022/03/28 11:35:39;;;;;;;72.47;35.50;;;;;;;24.39;33.44;101674.13;5110728;28;20073;-63
2022/03/28 11:38:07;;;;;;;70.47;34.67;;;;;;;24.61;32.44;101680.78;5113970;28;20515;-63